Time;durP1;ratioP1;P1;durP2;ratioP2;P2;SDS_P1;SDS_P2;PMS_P1;PMS_P2;Temp;Humidity;BMP_temperature;BMP_pressure;BME280_temperature;BME280_humidity;BME280_pressure;Samples;Min_cycle;Max_cycle;Signal;HPM_P1;HPM_P2
2022/02/03 00:00:42;;;;;;;15.37;6.80;;;;;;;;;;6086711;23;20511;-89
2022/02/03 00:03:52;;;;;;;12.47;5.60;;;;;;;;;;6099903;23;20581;-88
2022/02/03 00:07:02;;;;;;;12.27;6.03;;;;;;;;;;6103076;23;20872;-88
2022/02/03 00:17:01;;;;;;;19.63;6.97;;;;;;;;;;6102874;23;20503;-89
2022/02/03 00:27:37;;;;;;;14.27;5.60;;;;;;;;;;6102756;23;20518;-88
2022/02/03 00:34:03;;;;;;;14.53;6.03;;;;;;;;;;6093073;23;20896;-89
2022/02/03 00:37:16;;;;;;;19.03;6.10;;;;;;;;;;6103578;23;20498;-88
2022/02/03 00:50:24;;;;;;;13.33;5.70;;;;;;;;;;6102987;23;20507;-88
2022/02/03 00:53:28;;;;;;;12.17;5.23;;;;;;;;;;6084124;23;20586;-88
2022/02/03 00:56:35;;;;;;;9.70;5.57;;;;;;;;;;6076405;23;20550;-88
2022/02/03 00:59:55;;;;;;;9.93;4.93;;;;;;;;;;6086120;23;20502;-89
2022/02/03 01:03:13;;;;;;;16.50;5.63;;;;;;;;;;6086105;23;20503;-87
2022/02/03 01:06:20;;;;;;;15.20;5.53;;;;;;;;;;6103188;23;21035;-88
2022/02/03 01:09:30;;;;;;;17.83;5.90;;;;;;;;;;6077521;23;20861;-87
2022/02/03 01:12:47;;;;;;;9.13;5.10;;;;;;;;;;6076462;23;20558;-87
2022/02/03 01:16:01;;;;;;;12.93;5.07;;;;;;;;;;6085815;23;20511;-88
2022/02/03 01:46:19;;;;;;;8.63;5.67;;;;;;;;;;6119453;23;20498;-88
2022/02/03 01:52:49;;;;;;;7.73;5.20;;;;;;;;;;6104146;23;20510;-87
2022/02/03 01:56:02;;;;;;;11.37;5.97;;;;;;;;;;6137994;23;20506;-88
2022/02/03 01:59:20;;;;;;;12.50;5.23;;;;;;;;;;6104444;23;21028;-88
2022/02/03 02:02:31;;;;;;;9.73;5.40;;;;;;;;;;6088124;23;20506;-88
2022/02/03 02:06:09;;;;;;;13.47;5.47;;;;;;;;;;6120600;23;20506;-88
2022/02/03 02:09:25;;;;;;;10.17;5.37;;;;;;;;;;6104113;23;20558;-87
2022/02/03 02:13:23;;;;;;;11.23;5.33;;;;;;;;;;6087824;23;21031;-87
2022/02/03 02:16:50;;;;;;;7.37;4.23;;;;;;;;;;6072840;23;20565;-87
2022/02/03 02:43:47;;;;;;;8.33;4.80;;;;;;;;;;6099700;23;20613;-87
2022/02/03 02:46:54;;;;;;;10.80;5.50;;;;;;;;;;6103989;23;20511;-88
2022/02/03 02:50:13;;;;;;;7.83;4.80;;;;;;;;;;6077361;23;20546;-88
2022/02/03 02:53:58;;;;;;;9.77;5.33;;;;;;;;;;6119412;23;20514;-89
2022/02/03 03:31:39;;;;;;;9.67;5.70;;;;;;;;;;6103042;23;20507;-87
2022/02/03 03:35:05;;;;;;;9.30;6.20;;;;;;;;;;6079835;23;20581;-87
2022/02/03 03:38:16;;;;;;;10.60;6.90;;;;;;;;;;6103203;23;20499;-87
2022/02/03 03:41:21;;;;;;;10.57;6.07;;;;;;;;;;6086695;23;20506;-87
2022/02/03 03:44:29;;;;;;;10.23;6.33;;;;;;;;;;6093001;23;20589;-87
2022/02/03 03:47:36;;;;;;;10.77;6.77;;;;;;;;;;6093626;23;20559;-87
2022/02/03 03:50:44;;;;;;;11.17;7.00;;;;;;;;;;6127773;23;20546;-87
2022/02/03 03:54:02;;;;;;;11.03;6.77;;;;;;;;;;6076788;23;20585;-87
2022/02/03 04:32:29;;;;;;;11.20;7.10;;;;;;;;;;6087348;23;20578;-88
2022/02/03 04:39:23;;;;;;;14.77;8.80;;;;;;;;;;6103713;23;20146;-88
2022/02/03 04:57:24;;;;;;;13.90;8.47;;;;;;;;;;6102736;23;20461;-87
2022/02/03 05:04:33;;;;;;;12.70;8.73;;;;;;;;;;6099632;23;20574;-87
2022/02/03 05:11:50;;;;;;;14.27;8.47;;;;;;;;;;6102683;23;20155;-87
2022/02/03 05:19:47;;;;;;;12.87;8.67;;;;;;;;;;6102551;23;20612;-88
2022/02/03 05:45:25;;;;;;;13.83;9.10;;;;;;;;;;6098849;23;20202;-87
2022/02/03 05:48:56;;;;;;;13.27;8.70;;;;;;;;;;6121163;23;20159;-87
2022/02/03 06:00:43;;;;;;;14.50;9.10;;;;;;;;;;6110876;23;20194;-87
2022/02/03 06:05:23;;;;;;;15.03;9.80;;;;;;;;;;6128421;23;20190;-87
2022/02/03 06:12:16;;;;;;;15.10;10.03;;;;;;;;;;6103810;23;20158;-87
2022/02/03 06:22:11;;;;;;;14.63;9.50;;;;;;;;;;6103612;23;20151;-87
2022/02/03 06:28:22;;;;;;;14.10;9.27;;;;;;;;;;6138046;23;20155;-87
2022/02/03 06:31:26;;;;;;;15.13;10.03;;;;;;;;;;6120570;23;20150;-86
2022/02/03 06:34:29;;;;;;;15.00;9.73;;;;;;;;;;6080833;23;20197;-86
2022/02/03 06:37:34;;;;;;;13.67;9.27;;;;;;;;;;6087280;23;20154;-85
2022/02/03 06:40:38;;;;;;;13.97;9.17;;;;;;;;;;6103982;23;20604;-86
2022/02/03 06:43:43;;;;;;;13.47;9.33;;;;;;;;;;6077508;23;20197;-86
2022/02/03 06:46:51;;;;;;;15.60;9.27;;;;;;;;;;6094418;23;20174;-86
2022/02/03 06:56:09;;;;;;;18.97;12.10;;;;;;;;;;6103716;23;20226;-86
2022/02/03 06:59:16;;;;;;;14.37;9.90;;;;;;;;;;6077834;23;20167;-86
2022/02/03 07:02:22;;;;;;;17.13;10.40;;;;;;;;;;6077195;23;20488;-87
2022/02/03 07:05:27;;;;;;;14.23;8.60;;;;;;;;;;6093695;23;20190;-87
2022/02/03 07:08:32;;;;;;;13.43;8.30;;;;;;;;;;6103843;23;20158;-87
2022/02/03 07:11:39;;;;;;;13.77;8.17;;;;;;;;;;6087335;23;20150;-86
2022/02/03 07:14:43;;;;;;;11.93;8.00;;;;;;;;;;6113115;23;20659;-86
2022/02/03 07:17:47;;;;;;;12.53;8.33;;;;;;;;;;6087846;23;20158;-86
2022/02/03 07:20:51;;;;;;;12.10;7.97;;;;;;;;;;6086713;23;20154;-87
2022/02/03 07:23:56;;;;;;;11.77;7.10;;;;;;;;;;6099603;23;20190;-86
2022/02/03 07:27:00;;;;;;;12.60;7.87;;;;;;;;;;6119558;23;20158;-87
2022/02/03 07:30:05;;;;;;;11.87;7.67;;;;;;;;;;6104381;23;20178;-86
2022/02/03 07:33:10;;;;;;;11.73;8.23;;;;;;;;;;6103325;23;20163;-86
2022/02/03 07:36:14;;;;;;;11.90;8.30;;;;;;;;;;6086691;23;20159;-86
2022/02/03 07:39:18;;;;;;;12.87;8.17;;;;;;;;;;6103132;23;20150;-86
2022/02/03 07:42:23;;;;;;;11.03;7.80;;;;;;;;;;6103439;23;20158;-86
2022/02/03 07:45:27;;;;;;;12.47;8.10;;;;;;;;;;6093139;23;20202;-86
2022/02/03 07:48:30;;;;;;;11.87;7.63;;;;;;;;;;6086921;23;20599;-86
2022/02/03 07:51:34;;;;;;;12.50;8.67;;;;;;;;;;6103481;23;20596;-86
2022/02/03 07:54:40;;;;;;;12.70;7.83;;;;;;;;;;6080525;23;20489;-86
2022/02/03 07:57:49;;;;;;;12.57;7.70;;;;;;;;;;6103620;23;20154;-86
2022/02/03 08:00:53;;;;;;;16.10;8.10;;;;;;;;;;6110147;23;20166;-86
2022/02/03 08:04:01;;;;;;;15.40;8.23;;;;;;;;;;6083455;23;20190;-86
2022/02/03 08:07:05;;;;;;;11.63;7.63;;;;;;;;;;6077211;23;20178;-86
2022/02/03 08:10:17;;;;;;;13.50;7.90;;;;;;;;;;6087678;23;20635;-86
2022/02/03 08:13:33;;;;;;;14.67;9.33;;;;;;;;;;6086319;23;20608;-87
2022/02/03 08:16:50;;;;;;;16.67;9.23;;;;;;;;;;6088474;23;20454;-86
2022/02/03 08:26:37;;;;;;;13.77;9.40;;;;;;;;;;6082459;23;20178;-86
2022/02/03 08:33:04;;;;;;;17.10;11.80;;;;;;;;;;6102917;23;20465;-86
2022/02/03 08:36:09;;;;;;;17.17;12.90;;;;;;;;;;6087198;23;20158;-87
2022/02/03 08:39:18;;;;;;;18.20;11.57;;;;;;;;;;6104189;23;20158;-86
2022/02/03 08:42:23;;;;;;;13.77;9.80;;;;;;;;;;6088095;23;20158;-85
2022/02/03 08:45:27;;;;;;;10.77;8.07;;;;;;;;;;6100048;23;20658;-83
2022/02/03 08:48:32;;;;;;;11.37;8.37;;;;;;;;;;6094107;23;20170;-85
2022/02/03 08:51:36;;;;;;;12.83;10.00;;;;;;;;;;6077606;23;20480;-84
2022/02/03 08:54:48;;;;;;;11.80;9.30;;;;;;;;;;6092798;23;20173;-87
2022/02/03 09:28:50;;;;;;;9.63;6.73;;;;;;;;;;6089445;23;20600;-86
2022/02/03 09:51:51;;;;;;;8.73;6.37;;;;;;;;;;6073634;23;20466;-84
2022/02/03 09:55:09;;;;;;;7.60;6.23;;;;;;;;;;6056768;23;20155;-84
2022/02/03 09:58:16;;;;;;;8.43;6.40;;;;;;;;;;6057128;23;20156;-84
2022/02/03 10:01:40;;;;;;;8.47;6.23;;;;;;;;;;6057956;23;20151;-84
2022/02/03 10:04:53;;;;;;;7.17;5.80;;;;;;;;;;6057323;23;20160;-84
2022/02/03 10:07:57;;;;;;;7.47;6.00;;;;;;;;;;6108599;23;20159;-86
2022/02/03 10:11:20;;;;;;;8.93;5.30;;;;;;;;;;6058293;23;20187;-86
2022/02/03 10:14:39;;;;;;;7.40;6.07;;;;;;;;;;6058356;23;20155;-86
2022/02/03 10:17:46;;;;;;;8.03;5.60;;;;;;;;;;6074818;23;20159;-86
2022/02/03 10:20:51;;;;;;;8.03;5.80;;;;;;;;;;6074608;23;20589;-87
2022/02/03 10:24:00;;;;;;;8.37;5.93;;;;;;;;;;6074619;23;20159;-87
2022/02/03 10:27:05;;;;;;;8.17;6.00;;;;;;;;;;6065015;23;20194;-86
2022/02/03 10:30:11;;;;;;;7.27;5.67;;;;;;;;;;6057900;23;20190;-87
2022/02/03 10:33:16;;;;;;;7.73;5.70;;;;;;;;;;6074781;23;20159;-87
2022/02/03 10:36:57;;;;;;;7.87;5.63;;;;;;;;;;6051737;23;20194;-87
2022/02/03 10:40:22;;;;;;;6.60;5.37;;;;;;;;;;6057952;23;20593;-87
2022/02/03 10:43:52;;;;;;;6.20;5.27;;;;;;;;;;6074882;23;20159;-87
2022/02/03 10:47:12;;;;;;;6.47;5.33;;;;;;;;;;6082440;23;20218;-87
2022/02/03 10:54:07;;;;;;;7.00;4.73;;;;;;;;;;6090952;23;20155;-88
2022/02/03 10:57:37;;;;;;;5.23;4.57;;;;;;;;;;6091071;23;20163;-87
2022/02/03 11:07:11;;;;;;;5.33;4.43;;;;;;;;;;6063850;23;20194;-86
2022/02/03 11:13:36;;;;;;;5.27;4.37;;;;;;;;;;6064375;23;20171;-87
2022/02/03 11:16:41;;;;;;;5.80;4.40;;;;;;;;;;6091641;23;20179;-85
2022/02/03 11:19:49;;;;;;;5.20;4.07;;;;;;;;;;6102313;23;20199;-82
2022/02/03 11:23:07;;;;;;;4.17;3.53;;;;;;;;;;6072828;23;20159;-84
2022/02/03 11:32:51;;;;;;;3.63;3.33;;;;;;;;;;6073875;23;20163;-86
2022/02/03 11:42:50;;;;;;;4.77;3.43;;;;;;;;;;6090450;23;20156;-86
2022/02/03 12:03:24;;;;;;;3.30;2.80;;;;;;;;;;6074250;23;20155;-84
2022/02/03 12:20:52;;;;;;;4.50;3.73;;;;;;;;;;6080878;23;20167;-86
2022/02/03 12:24:20;;;;;;;3.67;2.70;;;;;;;;;;6057062;23;20596;-87
2022/02/03 12:27:36;;;;;;;3.17;2.87;;;;;;;;;;6080337;23;20249;-87
2022/02/03 12:41:08;;;;;;;3.03;2.47;;;;;;;;;;6089783;23;20160;-87
2022/02/03 12:44:25;;;;;;;2.60;2.40;;;;;;;;;;6073280;23;20159;-87
2022/02/03 12:47:31;;;;;;;3.70;2.90;;;;;;;;;;6056684;23;20251;-87
2022/02/03 12:50:38;;;;;;;3.27;2.70;;;;;;;;;;6060626;23;20187;-84
2022/02/03 12:53:41;;;;;;;2.60;2.40;;;;;;;;;;6086201;23;20155;-84
2022/02/03 12:56:46;;;;;;;3.17;2.30;;;;;;;;;;6093491;23;20190;-84
2022/02/03 13:00:18;;;;;;;2.17;1.97;;;;;;;;;;6070251;23;20159;-84
2022/02/03 13:03:52;;;;;;;2.37;2.17;;;;;;;;;;6084115;23;20250;-84
2022/02/03 13:07:03;;;;;;;3.03;1.80;;;;;;;;;;6066364;23;20190;-84
2022/02/03 13:10:10;;;;;;;1.67;1.57;;;;;;;;;;6048917;23;20482;-84
2022/02/03 13:13:37;;;;;;;2.97;1.97;;;;;;;;;;6091484;23;20155;-84
2022/02/03 13:17:17;;;;;;;2.30;1.97;;;;;;;;;;6066817;23;20199;-84
2022/02/03 13:20:33;;;;;;;3.97;1.93;;;;;;;;;;6074666;23;20616;-84
2022/02/03 13:23:45;;;;;;;1.63;1.53;;;;;;;;;;6059354;23;20159;-84
2022/02/03 13:26:50;;;;;;;2.50;1.80;;;;;;;;;;6066394;23;20195;-84
2022/02/03 13:33:02;;;;;;;2.30;2.10;;;;;;;;;;6075538;23;20155;-84
2022/02/03 13:36:10;;;;;;;2.30;1.90;;;;;;;;;;6069046;23;20194;-84
2022/02/03 13:39:26;;;;;;;2.07;1.87;;;;;;;;;;6064998;23;20628;-84
2022/02/03 13:42:31;;;;;;;2.00;1.80;;;;;;;;;;6059570;23;20156;-84
2022/02/03 13:45:43;;;;;;;3.07;1.77;;;;;;;;;;6073829;23;20202;-84
2022/02/03 13:48:51;;;;;;;4.17;1.47;;;;;;;;;;6077654;23;20159;-84
2022/02/03 13:51:57;;;;;;;1.60;1.47;;;;;;;;;;6060723;23;20182;-84
2022/02/03 14:19:45;;;;;;;1.67;1.43;;;;;;;;;;6108805;23;20158;-87
2022/02/03 14:29:31;;;;;;;2.43;1.53;;;;;;;;;;6074521;23;20159;-87
2022/02/03 14:32:38;;;;;;;1.57;1.37;;;;;;;;;;6058097;23;20183;-87
2022/02/03 14:35:44;;;;;;;1.80;1.37;;;;;;;;;;6070152;23;20190;-87
2022/02/03 14:39:02;;;;;;;1.73;1.43;;;;;;;;;;6074583;23;20155;-87
2022/02/03 14:42:07;;;;;;;1.53;1.43;;;;;;;;;;6074512;23;20159;-87
2022/02/03 14:45:15;;;;;;;7.40;1.70;;;;;;;;;;6064942;23;20199;-84
2022/02/03 14:48:19;;;;;;;2.47;1.37;;;;;;;;;;6059532;23;20164;-84
2022/02/03 14:51:29;;;;;;;1.37;1.10;;;;;;;;;;6075728;23;20186;-84
2022/02/03 15:00:59;;;;;;;2.37;1.30;;;;;;;;;;6075402;23;20160;-84
2022/02/03 15:04:05;;;;;;;1.20;1.10;;;;;;;;;;6074835;23;20151;-87
2022/02/03 15:07:11;;;;;;;1.63;1.20;;;;;;;;;;6074442;23;20159;-84
2022/02/03 15:10:40;;;;;;;2.00;1.13;;;;;;;;;;6091671;23;20158;-85
2022/02/03 15:13:44;;;;;;;1.23;1.10;;;;;;;;;;6091606;23;20159;-85
2022/02/03 15:16:48;;;;;;;1.73;1.30;;;;;;;;;;6049765;23;20195;-84
2022/02/03 15:19:52;;;;;;;2.13;1.20;;;;;;;;;;6058146;23;20162;-85
2022/02/03 15:22:57;;;;;;;4.73;3.60;;;;;;;;;;6091901;23;20155;-85
2022/02/03 15:26:01;;;;;;;4.77;3.50;;;;;;;;;;6064671;23;20194;-85
2022/02/03 15:29:05;;;;;;;3.50;2.10;;;;;;;;;;6074512;23;20159;-85
2022/02/03 15:32:09;;;;;;;1.70;1.40;;;;;;;;;;6075173;23;20186;-85
2022/02/03 15:35:32;;;;;;;2.37;1.60;;;;;;;;;;6072688;23;20194;-84
2022/02/03 15:38:38;;;;;;;1.00;0.90;;;;;;;;;;6058139;23;20155;-84
2022/02/03 15:41:43;;;;;;;1.33;1.00;;;;;;;;;;6057528;23;20154;-84
2022/02/03 15:44:51;;;;;;;1.50;1.10;;;;;;;;;;6047861;23;20629;-84
2022/02/03 15:48:00;;;;;;;1.30;0.90;;;;;;;;;;6090401;23;20159;-84
2022/02/03 15:51:19;;;;;;;1.53;1.10;;;;;;;;;;6057893;23;20155;-84
2022/02/03 16:17:21;;;;;;;2.27;1.10;;;;;;;;;;6107619;23;20155;-84
2022/02/03 16:20:31;;;;;;;1.40;0.90;;;;;;;;;;6107208;23;20154;-84
2022/02/03 16:53:43;;;;;;;2.57;1.70;;;;;;;;;;6097810;23;20203;-84
2022/02/03 16:56:51;;;;;;;2.87;1.87;;;;;;;;;;6064365;23;20190;-84
2022/02/03 17:00:04;;;;;;;3.60;2.50;;;;;;;;;;6074690;23;20601;-84
2022/02/03 17:03:08;;;;;;;2.63;2.03;;;;;;;;;;6074732;23;20151;-84
2022/02/03 17:06:13;;;;;;;6.00;2.33;;;;;;;;;;6052257;23;20194;-84
2022/02/03 17:09:18;;;;;;;4.23;2.37;;;;;;;;;;6058402;23;20159;-84
2022/02/03 17:12:23;;;;;;;2.60;2.23;;;;;;;;;;6090256;23;20497;-84
2022/02/03 17:15:27;;;;;;;2.70;2.33;;;;;;;;;;6070856;23;20191;-84
2022/02/03 17:18:31;;;;;;;2.47;2.00;;;;;;;;;;6061418;23;20155;-84
2022/02/03 17:21:35;;;;;;;2.97;2.00;;;;;;;;;;6077899;23;20159;-84
2022/02/03 17:24:45;;;;;;;3.47;2.53;;;;;;;;;;6077903;23;20478;-84
2022/02/03 17:28:00;;;;;;;3.57;2.17;;;;;;;;;;6061527;23;20155;-84
2022/02/03 17:31:35;;;;;;;3.20;2.67;;;;;;;;;;6080345;23;20150;-84
2022/02/03 18:11:24;;;;;;;4.13;3.50;;;;;;;;;;6077206;23;20492;-84
2022/02/03 18:18:32;;;;;;;9.57;7.33;;;;;;;;;;6077751;23;20502;-84
2022/02/03 18:31:25;;;;;;;5.87;3.70;;;;;;;;;;6076505;23;20593;-84
2022/02/03 18:51:00;;;;;;;5.87;2.80;;;;;;;;;;6092842;23;20159;-85
2022/02/03 19:11:04;;;;;;;10.70;6.67;;;;;;;;;;6075971;23;20160;-85
2022/02/03 19:58:30;;;;;;;4.97;4.17;;;;;;;;;;6107936;23;20155;-85
2022/02/03 20:07:51;;;;;;;4.70;3.27;;;;;;;;;;6090896;23;20159;-85
2022/02/03 20:10:49;;;;;;;5.73;3.00;;;;;;;;;;6074055;23;20160;-85
2022/02/03 20:13:53;;;;;;;6.13;3.13;;;;;;;;;;6057432;23;20187;-85
2022/02/03 20:16:57;;;;;;;5.83;3.20;;;;;;;;;;6048042;23;20195;-85
2022/02/03 20:20:01;;;;;;;4.67;3.27;;;;;;;;;;6057341;23;20159;-85
2022/02/03 20:23:09;;;;;;;3.90;3.20;;;;;;;;;;6073594;23;20151;-85
2022/02/03 20:26:16;;;;;;;3.33;2.93;;;;;;;;;;6068512;23;20199;-85
2022/02/03 20:29:20;;;;;;;3.90;3.10;;;;;;;;;;6074183;23;20159;-83
2022/02/03 20:32:28;;;;;;;4.17;3.07;;;;;;;;;;6074559;23;20600;-85
2022/02/03 20:35:32;;;;;;;5.87;3.20;;;;;;;;;;6071749;23;20528;-85
2022/02/03 20:38:37;;;;;;;3.33;2.80;;;;;;;;;;6074526;23;20155;-85
2022/02/03 20:41:41;;;;;;;4.77;2.97;;;;;;;;;;6064054;23;20174;-85
2022/02/03 20:44:48;;;;;;;4.87;3.00;;;;;;;;;;6057883;23;20580;-86
2022/02/03 20:47:52;;;;;;;4.23;3.27;;;;;;;;;;6109326;23;20240;-86
2022/02/03 20:50:57;;;;;;;4.03;3.10;;;;;;;;;;6105187;23;20591;-86
2022/02/03 20:54:02;;;;;;;3.43;2.83;;;;;;;;;;6088478;23;20182;-85
2022/02/03 20:57:06;;;;;;;4.93;3.47;;;;;;;;;;6070479;23;20195;-86
2022/02/03 21:00:19;;;;;;;4.87;3.40;;;;;;;;;;6076547;23;20159;-85
2022/02/03 21:03:38;;;;;;;5.80;3.97;;;;;;;;;;6075987;23;20155;-85
2022/02/03 21:06:42;;;;;;;4.17;3.20;;;;;;;;;;6065456;23;20191;-85
2022/02/03 21:09:48;;;;;;;4.27;3.20;;;;;;;;;;6092797;23;20155;-85
2022/02/03 21:12:55;;;;;;;5.00;3.73;;;;;;;;;;6092767;23;20162;-85
2022/02/03 21:16:02;;;;;;;4.83;3.43;;;;;;;;;;6091016;23;20686;-85
2022/02/03 21:19:06;;;;;;;3.87;3.23;;;;;;;;;;6092506;23;20158;-85
2022/02/03 21:22:10;;;;;;;4.27;3.40;;;;;;;;;;6093778;23;20159;-85
2022/02/03 21:25:23;;;;;;;6.30;3.40;;;;;;;;;;6060092;23;20150;-85
2022/02/03 21:28:31;;;;;;;5.57;3.40;;;;;;;;;;6076025;23;20159;-87
2022/02/03 21:31:36;;;;;;;5.40;3.10;;;;;;;;;;6067071;23;20175;-85
2022/02/03 21:34:40;;;;;;;3.53;3.00;;;;;;;;;;6091688;23;20615;-85
2022/02/03 21:37:45;;;;;;;6.00;3.50;;;;;;;;;;6066964;23;20190;-86
2022/02/03 21:40:50;;;;;;;5.30;3.60;;;;;;;;;;6092401;23;20155;-86
2022/02/03 21:43:54;;;;;;;6.30;3.77;;;;;;;;;;6092083;23;20151;-85
2022/02/03 21:46:58;;;;;;;4.63;3.13;;;;;;;;;;6069714;23;20202;-85
2022/02/03 21:50:06;;;;;;;4.57;3.20;;;;;;;;;;6075186;23;20600;-85
2022/02/03 21:53:32;;;;;;;6.57;4.37;;;;;;;;;;6091417;23;20159;-85
2022/02/03 21:56:36;;;;;;;4.40;3.47;;;;;;;;;;6087785;23;20195;-85
2022/02/03 21:59:40;;;;;;;4.17;3.47;;;;;;;;;;6091270;23;20159;-85
2022/02/03 22:02:46;;;;;;;5.20;3.77;;;;;;;;;;6090718;23;20159;-85
2022/02/03 22:05:51;;;;;;;5.63;3.43;;;;;;;;;;6075852;23;20151;-85
2022/02/03 22:08:55;;;;;;;5.87;3.80;;;;;;;;;;6092642;23;20155;-85
2022/02/03 22:11:59;;;;;;;5.00;3.17;;;;;;;;;;6076801;23;20472;-85
2022/02/03 22:15:04;;;;;;;4.70;3.17;;;;;;;;;;6076253;23;20652;-86
2022/02/03 22:18:14;;;;;;;4.47;3.10;;;;;;;;;;6091963;23;20158;-86
2022/02/03 22:44:23;;;;;;;5.93;3.60;;;;;;;;;;6091255;23;20430;-86
2022/02/03 22:47:43;;;;;;;5.00;3.90;;;;;;;;;;6084074;23;20202;-85
2022/02/03 22:50:47;;;;;;;4.33;3.40;;;;;;;;;;6091573;23;20159;-85
2022/02/03 22:53:52;;;;;;;4.33;3.13;;;;;;;;;;6108102;23;20512;-85
2022/02/03 22:56:56;;;;;;;4.83;3.27;;;;;;;;;;6069748;23;20191;-85
2022/02/03 23:00:12;;;;;;;5.47;3.80;;;;;;;;;;6091166;23;20151;-86
2022/02/03 23:03:16;;;;;;;4.73;3.60;;;;;;;;;;6091238;23;20159;-85
2022/02/03 23:06:20;;;;;;;3.93;3.37;;;;;;;;;;6065146;23;20190;-85
2022/02/03 23:09:42;;;;;;;4.43;3.57;;;;;;;;;;6065255;23;20174;-85
2022/02/03 23:16:06;;;;;;;6.30;3.83;;;;;;;;;;6090658;23;20159;-85
2022/02/03 23:19:33;;;;;;;4.77;3.90;;;;;;;;;;6091694;23;20622;-86
2022/02/03 23:22:37;;;;;;;6.10;4.20;;;;;;;;;;6075418;23;20159;-85
2022/02/03 23:25:44;;;;;;;5.27;3.97;;;;;;;;;;6075011;23;20155;-85
2022/02/03 23:28:50;;;;;;;4.80;4.13;;;;;;;;;;6108249;23;20159;-85
2022/02/03 23:32:07;;;;;;;5.17;3.77;;;;;;;;;;6108738;23;20162;-85
